METAR Data
IDs: Format: Raw Decoded Include TAF

Data at: 0306 UTC 23 Apr 2021

YMEK 230300Z AUTO 03011KT 9999 // NCD 27/00 Q1021
YMEK 230200Z AUTO 04011KT 9999 // NCD 25/02 Q1021
YMEK 230100Z AUTO 04014KT 9999 // NCD 23/02 Q1021
YMEK 230000Z AUTO 05012KT 9999 // NCD 21/02 Q1021
YMEK 222300Z AUTO 05011KT 9999 // NCD 20/01 Q1020
YMEK 222200Z AUTO 05010KT 9999 // NCD 20/01 Q1020
YMEK 222100Z AUTO 06008KT 9999 // NCD 19/M01 Q1019
YMEK 222000Z AUTO 07008KT 9999 // NCD 19/M01 Q1019
YMEK 221900Z AUTO 06006KT 9999 // NCD 18/M01 Q1019
YMEK 221800Z AUTO 07005KT 9999 // NCD 19/M01 Q1019
YMEK 221700Z AUTO 09009KT 9999 // NCD 20/M01 Q1020
YMEK 221600Z AUTO 10010KT 9999 // NCD 21/M02 Q1020
YMEK 221500Z AUTO 11010KT 9999 // NCD 22/M02 Q1020
YMEK 221400Z AUTO 11008KT 9999 // NCD 23/M02 Q1020
YMEK 221300Z AUTO 13008KT 9999 // NCD 24/M03 Q1020
YMEK 221200Z AUTO 17006KT 9999 // NCD 23/M03 Q1020
YMEK 221100Z AUTO 16007KT 9999 // NCD 26/M03 Q1019
YMEK 221000Z AUTO 16006KT 9999 // NCD 27/M05 Q1019
YMEK 220900Z AUTO 13006KT 100V160 9999 // NCD 29/M05 Q1018
YMEK 220800Z AUTO 22003KT 9999 // NCD 29/M05 Q1018
YMEK 220700Z AUTO 17007KT 9999 // NCD 30/M06 Q1018
YMEK 220600Z AUTO 18006KT 150V230 9999 // NCD 30/M05 Q1018
YMEK 220500Z AUTO 21007KT 150V230 9999 // NCD 30/M05 Q1019
YMEK 220400Z AUTO 05007KT 010V070 9999 // NCD 29/M06 Q1020
YMEK 220300Z AUTO 03010KT 9999 // NCD 29/M04 Q1021
YMEK 220200Z AUTO 06009KT 9999 // NCD 26/M02 Q1021
YMEK 220100Z AUTO 06011KT 9999 // NCD 23/00 Q1022
YMEK 220000Z AUTO 07010KT 9999 // NCD 21/02 Q1022
YMEK 212300Z AUTO 09009KT 9999 // NCD 18/01 Q1021
YMEK 212200Z AUTO 09009KT 9999 // NCD 17/01 Q1021
YMEK 212100Z AUTO 11010KT 9999 // NCD 18/00 Q1021
YMEK 212000Z AUTO 09010KT 9999 // NCD 18/00 Q1020
YMEK 211900Z AUTO 11011KT 9999 // NCD 19/M00 Q1020
YMEK 211800Z AUTO 11008KT 9999 // NCD 19/M01 Q1020
YMEK 211700Z AUTO 12008KT 9999 // NCD 20/M01 Q1021
YMEK 211600Z AUTO 13009KT 9999 // NCD 21/M01 Q1021